Time;durP1;ratioP1;P1;durP2;ratioP2;P2;SDS_P1;SDS_P2;PMS_P1;PMS_P2;Temp;Humidity;BMP_temperature;BMP_pressure;BME280_temperature;BME280_humidity;BME280_pressure;Samples;Min_cycle;Max_cycle;Signal;HPM_P1;HPM_P2
2023/05/04 00:00:39;;;;;;;;;;;;;;;;;;5062573;28;19958;-61
2023/05/04 00:03:05;;;;;;;;;;;;;;;;;;5071341;28;20373;-61
2023/05/04 00:05:31;;;;;;;;;;;;;;;;;;5067634;28;19941;-61
2023/05/04 00:07:57;;;;;;;;;;;;;;;;;;5067744;28;19931;-61
2023/05/04 00:10:23;;;;;;;;;;;;;;;;;;5066957;28;19925;-61
2023/05/04 00:12:49;;;;;;;;;;;;;;;;;;5054828;28;19921;-61
2023/05/04 00:15:15;;;;;;;;;;;;;;;;;;5055964;28;20282;-61
2023/05/04 00:17:41;;;;;;;;;;;;;;;;;;5065233;28;19921;-61
2023/05/04 00:20:07;;;;;;;;;;;;;;;;;;5067247;28;19924;-61
2023/05/04 00:22:33;;;;;;;;;;;;;;;;;;5055320;28;19925;-61
2023/05/04 00:24:59;;;;;;;;;;;;;;;;;;5070150;28;19920;-61
2023/05/04 00:27:24;;;;;;;;;;;;;;;;;;5067188;28;20316;-61
2023/05/04 00:29:50;;;;;;;;;;;;;;;;;;5063722;28;20279;-61
2023/05/04 00:32:16;;;;;;;;;;;;;;;;;;5070486;28;19943;-61
2023/05/04 00:34:42;;;;;;;;;;;;;;;;;;5068705;28;19921;-61
2023/05/04 00:37:08;;;;;;;;;;;;;;;;;;5060876;28;19924;-61
2023/05/04 00:39:34;;;;;;;;;;;;;;;;;;5068054;28;19932;-62
2023/05/04 00:42:01;;;;;;;;;;;;;;;;;;5051177;28;20310;-60
2023/05/04 00:44:27;;;;;;;;;;;;;;;;;;5069154;28;19995;-61
2023/05/04 00:46:53;;;;;;;;;;;;;;;;;;5063028;28;20359;-61
2023/05/04 00:49:20;;;;;;;;;;;;;;;;;;5060622;28;19920;-61
2023/05/04 00:51:46;;;;;;;;;;;;;;;;;;5055857;28;19925;-61
2023/05/04 00:54:12;;;;;;;;;;;;;;;;;;5058314;28;20011;-61
2023/05/04 00:56:41;;;;;;;;;;;;;;;;;;5064708;28;20335;-61
2023/05/04 00:59:06;;;;;;;;;;;;;;;;;;5070306;28;19928;-61
2023/05/04 01:01:32;;;;;;;;;;;;;;;;;;5072741;28;19932;-61
2023/05/04 01:03:58;;;;;;;;;;;;;;;;;;5065292;28;19944;-61
2023/05/04 01:06:25;;;;;;;;;;;;;;;;;;5067928;28;19925;-61
2023/05/04 01:08:51;;;;;;;;;;;;;;;;;;5060821;28;19932;-61
2023/05/04 01:11:18;;;;;;;;;;;;;;;;;;5063792;28;19920;-61
2023/05/04 01:13:44;;;;;;;;;;;;;;;;;;5057349;28;19924;-61
2023/05/04 01:16:10;;;;;;;;;;;;;;;;;;5064303;28;19927;-60
2023/05/04 01:18:36;;;;;;;;;;;;;;;;;;5054101;28;19925;-61
2023/05/04 01:21:02;;;;;;;;;;;;;;;;;;5059814;28;19936;-61
2023/05/04 01:23:27;;;;;;;;;;;;;;;;;;5054290;28;19924;-61
2023/05/04 01:25:53;;;;;;;;;;;;;;;;;;5061573;28;20003;-61
2023/05/04 01:28:19;;;;;;;;;;;;;;;;;;5057213;28;19925;-61
2023/05/04 01:30:45;;;;;;;;;;;;;;;;;;5055924;28;20655;-61
2023/05/04 01:33:11;;;;;;;;;;;;;;;;;;5063859;28;20390;-61
2023/05/04 01:35:37;;;;;;;;;;;;;;;;;;5063935;28;19927;-60
2023/05/04 01:38:03;;;;;;;;;;;;;;;;;;5061268;28;19925;-60
2023/05/04 01:40:29;;;;;;;;;;;;;;;;;;5060472;28;19920;-61
2023/05/04 01:42:55;;;;;;;;;;;;;;;;;;5053717;28;19924;-61
2023/05/04 01:45:21;;;;;;;;;;;;;;;;;;5058535;28;19921;-61
2023/05/04 01:47:47;;;;;;;;;;;;;;;;;;5066009;28;20427;-62
2023/05/04 01:50:13;;;;;;;;;;;;;;;;;;5064987;28;19929;-61
2023/05/04 01:52:39;;;;;;;;;;;;;;;;;;5068311;28;19925;-61
2023/05/04 01:55:05;;;;;;;;;;;;;;;;;;5063319;28;19951;-61
2023/05/04 01:57:30;;;;;;;;;;;;;;;;;;5055539;28;19920;-61
2023/05/04 01:59:56;;;;;;;;;;;;;;;;;;5070130;28;19928;-61
2023/05/04 02:02:22;;;;;;;;;;;;;;;;;;5069940;28;20111;-61
2023/05/04 02:04:48;;;;;;;;;;;;;;;;;;5072071;28;20362;-61
2023/05/04 02:07:14;;;;;;;;;;;;;;;;;;5069105;28;20286;-61
2023/05/04 02:09:40;;;;;;;;;;;;;;;;;;5063872;28;19934;-61
2023/05/04 02:12:06;;;;;;;;;;;;;;;;;;5066053;28;19920;-61
2023/05/04 02:14:32;;;;;;;;;;;;;;;;;;5058821;28;20441;-61
2023/05/04 02:16:58;;;;;;;;;;;;;;;;;;5058514;28;19921;-61
2023/05/04 02:19:24;;;;;;;;;;;;;;;;;;5052774;28;20045;-61
2023/05/04 02:21:51;;;;;;;;;;;;;;;;;;5069021;28;20544;-61
2023/05/04 02:24:17;;;;;;;;;;;;;;;;;;5069967;28;20007;-61
2023/05/04 02:26:43;;;;;;;;;;;;;;;;;;5057185;28;20054;-61
2023/05/04 02:29:08;;;;;;;;;;;;;;;;;;5071067;28;19928;-61
2023/05/04 02:31:34;;;;;;;;;;;;;;;;;;5060589;28;20062;-61
2023/05/04 02:34:00;;;;;;;;;;;;;;;;;;5065634;28;19924;-61
2023/05/04 02:36:26;;;;;;;;;;;;;;;;;;5063849;28;19924;-61
2023/05/04 02:38:54;;;;;;;;;;;;;;;;;;5061419;28;19990;-62
2023/05/04 02:41:19;;;;;;;;;;;;;;;;;;5062097;28;19963;-61
2023/05/04 02:43:45;;;;;;;;;;;;;;;;;;5070295;28;20009;-62
2023/05/04 02:46:11;;;;;;;;;;;;;;;;;;5056281;28;19925;-62
2023/05/04 02:48:37;;;;;;;;;;;;;;;;;;5051596;28;20626;-61
2023/05/04 02:51:03;;;;;;;;;;;;;;;;;;5067234;28;19982;-62
2023/05/04 02:53:29;;;;;;;;;;;;;;;;;;5066787;28;19959;-62
2023/05/04 02:55:55;;;;;;;;;;;;;;;;;;5064409;28;19928;-62
2023/05/04 02:58:21;;;;;;;;;;;;;;;;;;5061019;28;19924;-60
2023/05/04 03:00:47;;;;;;;;;;;;;;;;;;5067526;28;20037;-61
2023/05/04 03:03:12;;;;;;;;;;;;;;;;;;5062032;28;19928;-61
2023/05/04 03:05:38;;;;;;;;;;;;;;;;;;5069869;28;19920;-60
2023/05/04 03:08:04;;;;;;;;;;;;;;;;;;5059942;28;20378;-60
2023/05/04 03:10:30;;;;;;;;;;;;;;;;;;5066936;28;19924;-61
2023/05/04 03:12:56;;;;;;;;;;;;;;;;;;5057181;28;20334;-61
2023/05/04 03:15:22;;;;;;;;;;;;;;;;;;5062190;28;19939;-61
2023/05/04 03:17:48;;;;;;;;;;;;;;;;;;5057923;28;19982;-61
2023/05/04 03:20:14;;;;;;;;;;;;;;;;;;5059589;22;20314;-63
2023/05/04 03:22:40;;;;;;;;;;;;;;;;;;5005657;28;20248;-63
2023/05/04 03:25:05;;;;;;;;;;;;;;;;;;5026960;28;19928;-63
2023/05/04 03:27:31;;;;;;;;;;;;;;;;;;5028878;28;19925;-62
2023/05/04 03:29:57;;;;;;;;;;;;;;;;;;5027688;28;19947;-63
2023/05/04 03:32:23;;;;;;;;;;;;;;;;;;5025809;28;19968;-62
2023/05/04 03:34:49;;;;;;;;;;;;;;;;;;5015945;28;19929;-62
2023/05/04 03:37:15;;;;;;;;;;;;;;;;;;5024487;28;19929;-63
2023/05/04 03:39:41;;;;;;;;;;;;;;;;;;5018135;28;19929;-63
2023/05/04 03:42:07;;;;;;;;;;;;;;;;;;5020719;28;19936;-63
2023/05/04 03:44:33;;;;;;;;;;;;;;;;;;5020026;28;19977;-63
2023/05/04 03:46:59;;;;;;;;;;;;;;;;;;5024249;28;20329;-62
2023/05/04 03:49:25;;;;;;;;;;;;;;;;;;5021832;28;19929;-64
2023/05/04 03:51:50;;;;;;;;;;;;;;;;;;5025367;28;19921;-64
2023/05/04 03:54:16;;;;;;;;;;;;;;;;;;5022063;28;19921;-63
2023/05/04 03:56:42;;;;;;;;;;;;;;;;;;5024752;28;20287;-62
2023/05/04 03:59:08;;;;;;;;;;;;;;;;;;5015609;28;19936;-63
2023/05/04 04:01:34;;;;;;;;;;;;;;;;;;5025161;28;19925;-62
2023/05/04 04:04:00;;;;;;;;;;;;;;;;;;5026353;28;19928;-62
2023/05/04 04:06:26;;;;;;;;;;;;;;;;;;5015889;28;20036;-63
2023/05/04 04:08:52;;;;;;;;;;;;;;;;;;5014118;28;20298;-62
2023/05/04 04:11:18;;;;;;;;;;;;;;;;;;5013439;28;19929;-62
2023/05/04 04:13:43;;;;;;;;;;;;;;;;;;5026663;28;20393;-61
2023/05/04 04:16:09;;;;;;;;;;;;;;;;;;5022639;28;19944;-63
2023/05/04 04:18:35;;;;;;;;;;;;;;;;;;5025754;28;19937;-63
2023/05/04 04:21:02;;;;;;;;;;;;;;;;;;5022684;28;19940;-63
2023/05/04 04:23:28;;;;;;;;;;;;;;;;;;5029928;28;20278;-63
2023/05/04 04:25:54;;;;;;;;;;;;;;;;;;5017557;28;19925;-63
2023/05/04 04:28:20;;;;;;;;;;;;;;;;;;5026343;28;19924;-63
2023/05/04 04:30:46;;;;;;;;;;;;;;;;;;5025156;28;20444;-63
2023/05/04 04:33:12;;;;;;;;;;;;;;;;;;5020160;28;19927;-63
2023/05/04 04:35:38;;;;;;;;;;;;;;;;;;5026940;28;20011;-63
2023/05/04 04:38:04;;;;;;;;;;;;;;;;;;5027179;28;19939;-62
2023/05/04 04:40:30;;;;;;;;;;;;;;;;;;5024175;28;19925;-63
2023/05/04 04:42:55;;;;;;;;;;;;;;;;;;5021038;28;20296;-63
2023/05/04 04:45:22;;;;;;;;;;;;;;;;;;5018989;28;19924;-64
2023/05/04 04:47:48;;;;;;;;;;;;;;;;;;5028507;28;19921;-62
2023/05/04 04:50:14;;;;;;;;;;;;;;;;;;5028239;28;19925;-64
2023/05/04 04:52:40;;;;;;;;;;;;;;;;;;5030856;28;19925;-64
2023/05/04 04:55:06;;;;;;;;;;;;;;;;;;5030944;28;19925;-64
2023/05/04 04:57:32;;;;;;;;;;;;;;;;;;5014181;28;19929;-63
2023/05/04 04:59:59;;;;;;;;;;;;;;;;;;5023593;28;19925;-63
2023/05/04 05:02:26;;;;;;;;;;;;;;;;;;5028928;28;19920;-63
2023/05/04 05:04:53;;;;;;;;;;;;;;;;;;5030825;28;19928;-63
2023/05/04 05:07:19;;;;;;;;;;;;;;;;;;5032037;28;19929;-64
2023/05/04 05:09:45;;;;;;;;;;;;;;;;;;5016369;28;20295;-63
2023/05/04 05:12:11;;;;;;;;;;;;;;;;;;5017256;28;19926;-63
2023/05/04 05:14:37;;;;;;;;;;;;;;;;;;5016530;28;19928;-63
2023/05/04 05:17:02;;;;;;;;;;;;;;;;;;5017497;28;20367;-63
2023/05/04 05:19:28;;;;;;;;;;;;;;;;;;5041299;28;19948;-62
2023/05/04 05:21:55;;;;;;;;;;;;;;;;;;5021471;28;19924;-62
2023/05/04 05:24:21;;;;;;;;;;;;;;;;;;5030974;28;20402;-63
2023/05/04 05:26:47;;;;;;;;;;;;;;;;;;5019860;28;20126;-63
2023/05/04 05:29:13;;;;;;;;;;;;;;;;;;5027087;28;19921;-63
2023/05/04 05:31:40;;;;;;;;;;;;;;;;;;5022221;28;20023;-63
2023/05/04 05:34:05;;;;;;;;;;;;;;;;;;5030002;28;19948;-63
2023/05/04 05:36:32;;;;;;;;;;;;;;;;;;5019371;28;20367;-63
2023/05/04 05:38:58;;;;;;;;;;;;;;;;;;5030743;28;19975;-63
2023/05/04 05:41:24;;;;;;;;;;;;;;;;;;5028983;28;19984;-62
2023/05/04 05:43:50;;;;;;;;;;;;;;;;;;5028085;28;19925;-62
2023/05/04 05:46:17;;;;;;;;;;;;;;;;;;5026184;28;19925;-63
2023/05/04 05:48:43;;;;;;;;;;;;;;;;;;5022525;28;19932;-63
2023/05/04 05:51:09;;;;;;;;;;;;;;;;;;5029043;28;19921;-62
2023/05/04 05:53:34;;;;;;;;;;;;;;;;;;5029909;28;19932;-62
2023/05/04 05:56:00;;;;;;;;;;;;;;;;;;5022685;28;19922;-63
2023/05/04 05:58:26;;;;;;;;;;;;;;;;;;5020048;28;19929;-63
2023/05/04 06:00:52;;;;;;;;;;;;;;;;;;5026308;28;19927;-63
2023/05/04 06:03:18;;;;;;;;;;;;;;;;;;5029757;28;19921;-63
2023/05/04 06:05:44;;;;;;;;;;;;;;;;;;5025315;28;20036;-63
2023/05/04 06:08:10;;;;;;;;;;;;;;;;;;5013100;28;19925;-63
2023/05/04 06:10:36;;;;;;;;;;;;;;;;;;5032928;28;19921;-64
2023/05/04 06:13:02;;;;;;;;;;;;;;;;;;5020692;28;19929;-63
2023/05/04 06:15:28;;;;;;;;;;;;;;;;;;5019630;28;19967;-63
2023/05/04 06:17:53;;;;;;;;;;;;;;;;;;5032064;28;19925;-63
2023/05/04 06:20:19;;;;;;;;;;;;;;;;;;5020276;28;19925;-63
2023/05/04 06:22:45;;;;;;;;;;;;;;;;;;5034068;28;20012;-63
2023/05/04 06:25:12;;;;;;;;;;;;;;;;;;5032957;28;20278;-63
2023/05/04 06:27:38;;;;;;;;;;;;;;;;;;5025570;28;20287;-63
2023/05/04 06:30:04;;;;;;;;;;;;;;;;;;5031334;28;20083;-62
2023/05/04 06:32:30;;;;;;;;;;;;;;;;;;5033206;28;19932;-63
2023/05/04 06:34:56;;;;;;;;;;;;;;;;;;5027451;28;20323;-63
2023/05/04 06:37:22;;;;;;;;;;;;;;;;;;5031318;28;19921;-62
2023/05/04 06:39:48;;;;;;;;;;;;;;;;;;5031652;28;20023;-63
2023/05/04 06:42:14;;;;;;;;;;;;;;;;;;5026782;28;20387;-63
2023/05/04 06:44:40;;;;;;;;;;;;;;;;;;5031916;28;19924;-63
2023/05/04 06:47:06;;;;;;;;;;;;;;;;;;5030538;28;19921;-63
2023/05/04 06:49:32;;;;;;;;;;;;;;;;;;5022898;28;20512;-64
2023/05/04 06:51:58;;;;;;;;;;;;;;;;;;5039569;28;19925;-64
2023/05/04 06:54:24;;;;;;;;;;;;;;;;;;5021240;28;19925;-65
2023/05/04 06:56:50;;;;;;;;;;;;;;;;;;5027685;28;20386;-64
2023/05/04 06:59:19;;;;;;;;;;;;;;;;;;5017633;28;19937;-64
2023/05/04 07:01:46;;;;;;;;;;;;;;;;;;5029462;28;19936;-64
2023/05/04 07:04:11;;;;;;;;;;;;;;;;;;5028061;28;19927;-64
2023/05/04 07:06:38;;;;;;;;;;;;;;;;;;5020819;28;19925;-64
2023/05/04 07:09:04;;;;;;;;;;;;;;;;;;5026305;28;20006;-64
2023/05/04 07:11:30;;;;;;;;;;;;;;;;;;5018852;28;19964;-64
2023/05/04 07:13:56;;;;;;;;;;;;;;;;;;5026650;28;19925;-64
2023/05/04 07:16:22;;;;;;;;;;;;;;;;;;5031422;28;19972;-64
2023/05/04 07:18:48;;;;;;;;;;;;;;;;;;5029784;28;19951;-64
2023/05/04 07:21:14;;;;;;;;;;;;;;;;;;5028661;28;19924;-64
2023/05/04 07:23:39;;;;;;;;;;;;;;;;;;5034875;28;20647;-65
2023/05/04 07:26:07;;;;;;;;;;;;;;;;;;5030394;28;19925;-65
2023/05/04 07:28:33;;;;;;;;;;;;;;;;;;5018951;28;19952;-65
2023/05/04 07:30:59;;;;;;;;;;;;;;;;;;5028036;28;20371;-65
2023/05/04 07:33:25;;;;;;;;;;;;;;;;;;5033742;28;19924;-65
2023/05/04 07:35:51;;;;;;;;;;;;;;;;;;5033144;28;20390;-65
2023/05/04 07:38:17;;;;;;;;;;;;;;;;;;5040526;28;20024;-65
2023/05/04 07:40:43;;;;;;;;;;;;;;;;;;5034963;28;19925;-65
2023/05/04 07:43:08;;;;;;;;;;;;;;;;;;5019424;28;19921;-66
2023/05/04 07:45:35;;;;;;;;;;;;;;;;;;5022385;28;19925;-66
2023/05/04 07:48:01;;;;;;;;;;;;;;;;;;5031411;28;19932;-65
2023/05/04 07:50:27;;;;;;;;;;;;;;;;;;5031412;28;20282;-65
2023/05/04 07:52:53;;;;;;;;;;;;;;;;;;5031533;28;19921;-65
2023/05/04 07:55:19;;;;;;;;;;;;;;;;;;5021035;28;19948;-66
2023/05/04 07:57:45;;;;;;;;;;;;;;;;;;5036206;28;20532;-66
2023/05/04 08:00:11;;;;;;;;;;;;;;;;;;5042327;28;20331;-65
2023/05/04 08:02:37;;;;;;;;;;;;;;;;;;5026780;28;19921;-65
2023/05/04 08:05:03;;;;;;;;;;;;;;;;;;5032277;28;19932;-65
2023/05/04 08:07:29;;;;;;;;;;;;;;;;;;5020412;28;19925;-65
2023/05/04 08:09:55;;;;;;;;;;;;;;;;;;5029810;28;20375;-64
2023/05/04 08:12:22;;;;;;;;;;;;;;;;;;5033957;28;19925;-64
2023/05/04 08:14:48;;;;;;;;;;;;;;;;;;5033602;28;19925;-65
2023/05/04 08:17:14;;;;;;;;;;;;;;;;;;5035453;28;19959;-65
2023/05/04 08:19:40;;;;;;;;;;;;;;;;;;5034618;28;19991;-65
2023/05/04 08:22:06;;;;;;;;;;;;;;;;;;5027589;28;20011;-65
2023/05/04 08:24:32;;;;;;;;;;;;;;;;;;5025913;28;19921;-64
2023/05/04 08:26:58;;;;;;;;;;;;;;;;;;5028235;28;20023;-65
2023/05/04 08:29:24;;;;;;;;;;;;;;;;;;5030643;28;20451;-65
2023/05/04 08:31:50;;;;;;;;;;;;;;;;;;5032382;28;19968;-64
2023/05/04 08:34:16;;;;;;;;;;;;;;;;;;5017318;28;19922;-62
2023/05/04 08:36:41;;;;;;;;;;;;;;;;;;5033324;28;19925;-62
2023/05/04 08:39:07;;;;;;;;;;;;;;;;;;5023408;28;19948;-62
2023/05/04 08:41:33;;;;;;;;;;;;;;;;;;5015753;28;19922;-62
2023/05/04 08:43:59;;;;;;;;;;;;;;;;;;5037610;28;19925;-62
2023/05/04 08:46:29;;;;;;;;;;;;;;;;;;5028175;28;19925;-62
2023/05/04 08:48:55;;;;;;;;;;;;;;;;;;5029054;28;19967;-61
2023/05/04 08:51:21;;;;;;;;;;;;;;;;;;5044350;28;20378;-61
2023/05/04 08:53:47;;;;;;;;;;;;;;;;;;5029231;28;19979;-61
2023/05/04 08:56:13;;;;;;;;;;;;;;;;;;5031444;28;20040;-61
2023/05/04 08:58:39;;;;;;;;;;;;;;;;;;5032774;28;19967;-61
2023/05/04 09:01:05;;;;;;;;;;;;;;;;;;5034530;28;19965;-62
2023/05/04 09:03:31;;;;;;;;;;;;;;;;;;5035084;28;19921;-61
2023/05/04 09:05:56;;;;;;;;;;;;;;;;;;5012229;28;19928;-62
2023/05/04 09:08:22;;;;;;;;;;;;;;;;;;5029503;28;19921;-62
2023/05/04 09:10:48;;;;;;;;;;;;;;;;;;5019648;28;19963;-62
2023/05/04 09:13:14;;;;;;;;;;;;;;;;;;5029308;28;20259;-63
2023/05/04 09:15:41;;;;;;;;;;;;;;;;;;5027975;28;19933;-63
2023/05/04 09:18:08;;;;;;;;;;;;;;;;;;5033625;28;19928;-62
2023/05/04 09:20:34;;;;;;;;;;;;;;;;;;5024657;28;20363;-63
2023/05/04 09:23:00;;;;;;;;;;;;;;;;;;5031371;28;19921;-63
2023/05/04 09:25:26;;;;;;;;;;;;;;;;;;5033905;28;19929;-63
2023/05/04 09:27:53;;;;;;;;;;;;;;;;;;5032289;28;19921;-62
2023/05/04 09:30:19;;;;;;;;;;;;;;;;;;5033988;28;20367;-62
2023/05/04 09:32:46;;;;;;;;;;;;;;;;;;5018475;28;19922;-63
2023/05/04 09:35:12;;;;;;;;;;;;;;;;;;5022151;28;19921;-63
2023/05/04 09:37:38;;;;;;;;;;;;;;;;;;5033755;28;20275;-63
2023/05/04 09:40:04;;;;;;;;;;;;;;;;;;5022261;28;19925;-62
2023/05/04 09:42:31;;;;;;;;;;;;;;;;;;5030466;28;19928;-62
2023/05/04 09:44:57;;;;;;;;;;;;;;;;;;5028376;28;19960;-61
2023/05/04 09:47:23;;;;;;;;;;;;;;;;;;5029491;28;19975;-61
2023/05/04 09:49:49;;;;;;;;;;;;;;;;;;5032963;28;20380;-62
2023/05/04 09:52:15;;;;;;;;;;;;;;;;;;5008522;28;19921;-61
2023/05/04 09:54:41;;;;;;;;;;;;;;;;;;5019183;28;20023;-61
2023/05/04 09:57:07;;;;;;;;;;;;;;;;;;5033209;28;19925;-61
2023/05/04 09:59:33;;;;;;;;;;;;;;;;;;5029477;28;19935;-62
2023/05/04 10:01:58;;;;;;;;;;;;;;;;;;5021432;28;19925;-62
2023/05/04 10:04:24;;;;;;;;;;;;;;;;;;5027565;28;19932;-61
2023/05/04 10:06:50;;;;;;;;;;;;;;;;;;5012921;28;19921;-61
2023/05/04 10:09:16;;;;;;;;;;;;;;;;;;5031376;28;19929;-61
2023/05/04 10:11:42;;;;;;;;;;;;;;;;;;5030320;28;19921;-61
2023/05/04 10:14:08;;;;;;;;;;;;;;;;;;5024606;28;20401;-61
2023/05/04 10:16:34;;;;;;;;;;;;;;;;;;5024070;28;19972;-61
2023/05/04 10:19:00;;;;;;;;;;;;;;;;;;5030238;28;19978;-60
2023/05/04 10:21:26;;;;;;;;;;;;;;;;;;5038070;28;19933;-61
2023/05/04 10:23:52;;;;;;;;;;;;;;;;;;5031691;28;19920;-61
2023/05/04 10:26:19;;;;;;;;;;;;;;;;;;5029079;28;19921;-64
2023/05/04 10:28:45;;;;;;;;;;;;;;;;;;5021311;28;20349;-64
2023/05/04 10:31:10;;;;;;;;;;;;;;;;;;5029656;28;19921;-64
2023/05/04 10:33:36;;;;;;;;;;;;;;;;;;5031140;28;19927;-64
2023/05/04 10:36:02;;;;;;;;;;;;;;;;;;5029133;28;20367;-64
2023/05/04 10:38:28;;;;;;;;;;;;;;;;;;5027644;28;19936;-64
2023/05/04 10:40:54;;;;;;;;;;;;;;;;;;5030903;28;20002;-64
2023/05/04 10:43:20;;;;;;;;;;;;;;;;;;5028227;28;19921;-64
2023/05/04 10:45:46;;;;;;;;;;;;;;;;;;5027409;28;19931;-64
2023/05/04 10:48:12;;;;;;;;;;;;;;;;;;5028154;28;20582;-64
2023/05/04 10:50:38;;;;;;;;;;;;;;;;;;5030289;28;19925;-64
2023/05/04 10:53:04;;;;;;;;;;;;;;;;;;5031949;28;20404;-64
2023/05/04 10:55:30;;;;;;;;;;;;;;;;;;5022816;28;20406;-64
2023/05/04 10:57:56;;;;;;;;;;;;;;;;;;5034757;28;19975;-63
2023/05/04 11:00:21;;;;;;;;;;;;;;;;;;5029201;28;20290;-64
2023/05/04 11:02:49;;;;;;;;;;;;;;;;;;5029393;28;21272;-64
2023/05/04 11:05:18;;;;;;;;;;;;;;;;;;5021231;28;19970;-64
2023/05/04 11:07:44;;;;;;;;;;;;;;;;;;5030292;28;19933;-64
2023/05/04 11:10:10;;;;;;;;;;;;;;;;;;5029718;28;19960;-64
2023/05/04 11:12:36;;;;;;;;;;;;;;;;;;5028692;28;20264;-64
2023/05/04 11:15:02;;;;;;;;;;;;;;;;;;5027674;28;19952;-63
2023/05/04 11:17:28;;;;;;;;;;;;;;;;;;5026285;28;20301;-64
2023/05/04 11:19:54;;;;;;;;;;;;;;;;;;5024262;28;19936;-63
2023/05/04 11:22:20;;;;;;;;;;;;;;;;;;5021870;28;19921;-64
2023/05/04 11:24:49;;;;;;;;;;;;;;;;;;5039165;28;20008;-63
2023/05/04 11:27:15;;;;;;;;;;;;;;;;;;5024119;28;20415;-63
2023/05/04 11:29:41;;;;;;;;;;;;;;;;;;5014141;28;19940;-64
2023/05/04 11:32:07;;;;;;;;;;;;;;;;;;5029724;28;19921;-64
2023/05/04 11:34:33;;;;;;;;;;;;;;;;;;5027321;28;19925;-64
2023/05/04 11:36:59;;;;;;;;;;;;;;;;;;5021780;28;19929;-64
2023/05/04 11:39:25;;;;;;;;;;;;;;;;;;5024958;28;19968;-64
2023/05/04 11:41:51;;;;;;;;;;;;;;;;;;5029175;28;19921;-64
2023/05/04 11:44:19;;;;;;;;;;;;;;;;;;5026009;28;19971;-64
2023/05/04 11:46:46;;;;;;;;;;;;;;;;;;5024894;28;19921;-64
2023/05/04 11:49:12;;;;;;;;;;;;;;;;;;5029039;28;19929;-65
2023/05/04 11:51:38;;;;;;;;;;;;;;;;;;5031212;28;19928;-64
2023/05/04 11:54:06;;;;;;;;;;;;;;;;;;5031643;28;19930;-64
2023/05/04 11:56:31;;;;;;;;;;;;;;;;;;5031397;28;19928;-63
2023/05/04 11:58:57;;;;;;;;;;;;;;;;;;5031454;28;19929;-64
2023/05/04 12:01:23;;;;;;;;;;;;;;;;;;5012864;28;19944;-64
2023/05/04 12:03:49;;;;;;;;;;;;;;;;;;5029941;28;19928;-64
2023/05/04 12:06:15;;;;;;;;;;;;;;;;;;5014577;28;19928;-64
2023/05/04 12:08:41;;;;;;;;;;;;;;;;;;5018819;28;19929;-64
2023/05/04 12:11:08;;;;;;;;;;;;;;;;;;5030571;28;19921;-63
2023/05/04 12:13:34;;;;;;;;;;;;;;;;;;5024415;28;19925;-64
2023/05/04 12:16:00;;;;;;;;;;;;;;;;;;5028947;28;19984;-63
2023/05/04 12:18:28;;;;;;;;;;;;;;;;;;5015955;28;19929;-64
2023/05/04 12:20:54;;;;;;;;;;;;;;;;;;5029433;28;20207;-64
2023/05/04 12:23:20;;;;;;;;;;;;;;;;;;5024546;28;20244;-64
2023/05/04 12:25:46;;;;;;;;;;;;;;;;;;5030680;28;19936;-64
2023/05/04 12:28:11;;;;;;;;;;;;;;;;;;5029197;28;20000;-64
2023/05/04 12:30:37;;;;;;;;;;;;;;;;;;5030028;28;19921;-64
2023/05/04 12:33:04;;;;;;;;;;;;;;;;;;5027798;28;19936;-64
2023/05/04 12:35:30;;;;;;;;;;;;;;;;;;5030366;28;19925;-64
2023/05/04 12:37:56;;;;;;;;;;;;;;;;;;5030417;28;19921;-64
2023/05/04 12:40:22;;;;;;;;;;;;;;;;;;5019976;28;19926;-64
2023/05/04 12:42:48;;;;;;;;;;;;;;;;;;5019314;28;19921;-64
2023/05/04 12:45:15;;;;;;;;;;;;;;;;;;5030585;28;19932;-64
2023/05/04 12:47:41;;;;;;;;;;;;;;;;;;5022375;28;20378;-64
2023/05/04 12:50:06;;;;;;;;;;;;;;;;;;5022839;28;20023;-64
2023/05/04 12:52:32;;;;;;;;;;;;;;;;;;5024856;28;19960;-64
2023/05/04 12:54:58;;;;;;;;;;;;;;;;;;5026313;28;20000;-64
2023/05/04 12:57:24;;;;;;;;;;;;;;;;;;5028998;28;19931;-65
2023/05/04 12:59:50;;;;;;;;;;;;;;;;;;5024004;28;19933;-64
2023/05/04 13:02:16;;;;;;;;;;;;;;;;;;5030256;28;19968;-65
2023/05/04 13:04:42;;;;;;;;;;;;;;;;;;5029738;28;19927;-64
2023/05/04 13:07:08;;;;;;;;;;;;;;;;;;5031574;28;19921;-64
2023/05/04 13:09:34;;;;;;;;;;;;;;;;;;5023012;28;20409;-64
2023/05/04 13:12:00;;;;;;;;;;;;;;;;;;5022219;28;20003;-64
2023/05/04 13:14:27;;;;;;;;;;;;;;;;;;5020254;28;20015;-65
2023/05/04 13:16:53;;;;;;;;;;;;;;;;;;5025701;28;20014;-65
2023/05/04 13:19:20;;;;;;;;;;;;;;;;;;5022613;28;19930;-65
2023/05/04 13:21:46;;;;;;;;;;;;;;;;;;5030566;28;19929;-65
2023/05/04 13:24:12;;;;;;;;;;;;;;;;;;5020411;28;19921;-65
2023/05/04 13:26:38;;;;;;;;;;;;;;;;;;5030314;28;19974;-64
2023/05/04 13:29:04;;;;;;;;;;;;;;;;;;5029010;28;19929;-64
2023/05/04 13:31:30;;;;;;;;;;;;;;;;;;5028968;28;20107;-65
2023/05/04 13:33:56;;;;;;;;;;;;;;;;;;5032192;28;19968;-65
2023/05/04 13:36:22;;;;;;;;;;;;;;;;;;5027475;28;19928;-64
2023/05/04 13:38:48;;;;;;;;;;;;;;;;;;5018991;28;19926;-65
2023/05/04 13:41:14;;;;;;;;;;;;;;;;;;5022007;28;19987;-65
2023/05/04 13:43:39;;;;;;;;;;;;;;;;;;5021623;28;19967;-65
2023/05/04 13:46:05;;;;;;;;;;;;;;;;;;5023910;28;19925;-65
2023/05/04 13:48:32;;;;;;;;;;;;;;;;;;5021443;28;20421;-65
2023/05/04 13:50:58;;;;;;;;;;;;;;;;;;5006891;28;20000;-65
2023/05/04 13:53:24;;;;;;;;;;;;;;;;;;5023166;28;20009;-65
2023/05/04 13:55:50;;;;;;;;;;;;;;;;;;5021226;28;19928;-64
2023/05/04 13:58:16;;;;;;;;;;;;;;;;;;5023911;28;19921;-64
2023/05/04 14:00:42;;;;;;;;;;;;;;;;;;5019913;28;19984;-65
2023/05/04 14:03:08;;;;;;;;;;;;;;;;;;5027823;28;19932;-66
2023/05/04 14:05:34;;;;;;;;;;;;;;;;;;5027404;28;19929;-65
2023/05/04 14:08:00;;;;;;;;;;;;;;;;;;5026315;28;20281;-65
2023/05/04 14:10:26;;;;;;;;;;;;;;;;;;5024992;28;19930;-65
2023/05/04 14:12:52;;;;;;;;;;;;;;;;;;5028324;28;19925;-65
2023/05/04 14:15:21;;;;;;;;;;;;;;;;;;5025940;28;19928;-65
2023/05/04 14:17:47;;;;;;;;;;;;;;;;;;5025442;28;19921;-65
2023/05/04 14:20:13;;;;;;;;;;;;;;;;;;5035760;28;19937;-66
2023/05/04 14:22:42;;;;;;;;;;;;;;;;;;5024769;28;19925;-65
2023/05/04 14:25:08;;;;;;;;;;;;;;;;;;5026624;28;19966;-65
2023/05/04 14:27:34;;;;;;;;;;;;;;;;;;5019813;28;20383;-64
2023/05/04 14:30:00;;;;;;;;;;;;;;;;;;5031747;28;19979;-64
2023/05/04 14:32:26;;;;;;;;;;;;;;;;;;5027581;28;19929;-65
2023/05/04 14:34:52;;;;;;;;;;;;;;;;;;5029015;28;19974;-65
2023/05/04 14:37:18;;;;;;;;;;;;;;;;;;5026865;28;19921;-63
2023/05/04 14:39:44;;;;;;;;;;;;;;;;;;5028357;28;20241;-64
2023/05/04 14:42:10;;;;;;;;;;;;;;;;;;5030413;28;20486;-64
2023/05/04 14:44:36;;;;;;;;;;;;;;;;;;5018332;28;20239;-64
2023/05/04 14:47:02;;;;;;;;;;;;;;;;;;5031217;28;19929;-63
2023/05/04 14:49:28;;;;;;;;;;;;;;;;;;5028122;28;19932;-64
2023/05/04 14:51:54;;;;;;;;;;;;;;;;;;5025352;28;19925;-65
2023/05/04 14:54:20;;;;;;;;;;;;;;;;;;5024580;28;19921;-64
2023/05/04 14:56:46;;;;;;;;;;;;;;;;;;5028461;28;20043;-65
2023/05/04 14:59:12;;;;;;;;;;;;;;;;;;5026451;28;20540;-65
2023/05/04 15:01:38;;;;;;;;;;;;;;;;;;5029388;28;19948;-64
2023/05/04 15:04:04;;;;;;;;;;;;;;;;;;5027643;28;21093;-65
2023/05/04 15:06:31;;;;;;;;;;;;;;;;;;5029094;28;20006;-65
2023/05/04 15:08:57;;;;;;;;;;;;;;;;;;5030146;28;19928;-65
2023/05/04 15:11:23;;;;;;;;;;;;;;;;;;5025100;28;19925;-66
2023/05/04 15:13:49;;;;;;;;;;;;;;;;;;5024576;28;19956;-64
2023/05/04 15:16:16;;;;;;;;;;;;;;;;;;5025105;28;19929;-66
2023/05/04 15:18:42;;;;;;;;;;;;;;;;;;5020909;28;20286;-65
2023/05/04 15:21:08;;;;;;;;;;;;;;;;;;5029691;28;19925;-63
2023/05/04 15:23:34;;;;;;;;;;;;;;;;;;5029426;28;19975;-64
2023/05/04 15:26:00;;;;;;;;;;;;;;;;;;5029863;28;19929;-64
2023/05/04 15:28:26;;;;;;;;;;;;;;;;;;5029887;28;19930;-64
2023/05/04 15:30:52;;;;;;;;;;;;;;;;;;5025357;28;28028;-64
2023/05/04 15:33:17;;;;;;;;;;;;;;;;;;5025751;28;20028;-65
2023/05/04 15:35:43;;;;;;;;;;;;;;;;;;5054799;23;20049;-61
2023/05/04 15:38:09;;;;;;;;;;;;;;;;;;5082406;28;20281;-61
2023/05/04 15:40:35;;;;;;;;;;;;;;;;;;5085204;28;19939;-61
2023/05/04 15:43:02;;;;;;;;;;;;;;;;;;5084883;28;19920;-61
2023/05/04 15:45:28;;;;;;;;;;;;;;;;;;5083250;28;20381;-61
2023/05/04 15:47:57;;;;;;;;;;;;;;;;;;5082370;28;19920;-61
2023/05/04 15:50:24;;;;;;;;;;;;;;;;;;5084346;28;19960;-61
2023/05/04 15:52:49;;;;;;;;;;;;;;;;;;5081602;28;20303;-61
2023/05/04 15:55:15;;;;;;;;;;;;;;;;;;5088038;28;19931;-61
2023/05/04 15:57:41;;;;;;;;;;;;;;;;;;5089162;28;20259;-62
2023/05/04 16:00:07;;;;;;;;;;;;;;;;;;5067384;28;19923;-61
2023/05/04 16:02:33;;;;;;;;;;;;;;;;;;5071639;28;19924;-61
2023/05/04 16:04:59;;;;;;;;;;;;;;;;;;5081068;28;19927;-61
2023/05/04 16:07:25;;;;;;;;;;;;;;;;;;5083924;28;19931;-62
2023/05/04 16:09:51;;;;;;;;;;;;;;;;;;5062884;28;19923;-61
2023/05/04 16:12:19;;;;;;;;;;;;;;;;;;5085845;28;19960;-60
2023/05/04 16:14:45;;;;;;;;;;;;;;;;;;5087237;28;19927;-61
2023/05/04 16:17:11;;;;;;;;;;;;;;;;;;5088232;28;19927;-60
2023/05/04 16:19:37;;;;;;;;;;;;;;;;;;5086916;28;20600;-61
2023/05/04 16:22:03;;;;;;;;;;;;;;;;;;5085239;28;19928;-61
2023/05/04 16:24:30;;;;;;;;;;;;;;;;;;5092286;28;20438;-61
2023/05/04 16:26:56;;;;;;;;;;;;;;;;;;5095582;28;19928;-61
2023/05/04 16:29:25;;;;;;;;;;;;;;;;;;5094131;28;20386;-61
2023/05/04 16:31:51;;;;;;;;;;;;;;;;;;5091474;28;19927;-61
2023/05/04 16:34:17;;;;;;;;;;;;;;;;;;5077395;28;20321;-61
2023/05/04 16:36:42;;;;;;;;;;;;;;;;;;5075708;28;19974;-61